Impacts TAF Board INFO
FOR SITUATIONAL AWARENESS. NOT TO BE USED FOR FLIGHT PLANNING PURPOSES.
IDs:

KMSP - Minneapolis-St Paul, MN, US

Issued at 1452 UTC 16 Dec 2017
Updated at 1645 UTC 16 Dec 2017
Potential Impact None Slight Moderate High
Time<<17/17Z 17/18Z 17/19Z 17/20Z 17/21Z 17/22Z 17/23Z 18/00Z 18/01Z 18/02Z 18/03Z 18/04Z 18/05Z
Type PRVL
VIS 6
CIG 12
Cover OVC
FltCat MVFR
WX BR
WDir 50
WSpd 3
WGst --

Raw TAF
KMSP 161452Z 1615/1718 07008KT 6SM BR OVC008
  FM162100 07005KT P6SM OVC015
  FM170800 05003KT 6SM BR SCT008 OVC012


METAR Board
Radar Display
Forecast Discussion

FOR SITUATIONAL AWARENESS. NOT TO BE USED FOR FLIGHT PLANNING PURPOSES.